<?xml version="1.0" encoding="utf-8"?>
<gpx xmlns:xsi="http://www.w3.org/2001/XMLSchema-instance" xmlns:xsd="http://www.w3.org/2001/XMLSchema" version="1.1" creator="Shapelink.com" xmlns="http://www.topografix.com/GPX/1/1" xmlns:gpxtpx="http://www.garmin.com/xmlschemas/TrackPointExtension/v1">
  <metadata>
    <name>Gåing 0.50 km, 2012-05-07</name>
    <desc></desc>
    <author><name>Mikael Blom</name></author> 
    <time>2012-05-07T15:34:36Z</time>
  </metadata>
  <trk>
    <name>Gåing 0.50 km, 2012-05-07</name>
    <trkseg>
      <trkpt lat="59.9752394" lon="17.7380001">
        <ele>27.0543</ele>
        <time>2012-05-07T15:34:36Z</time>
      </trkpt>
      <trkpt lat="59.9753312" lon="17.7381202">
        <ele>28.4962</ele>
        <time>2012-05-07T15:34:43Z</time>
      </trkpt>
      <trkpt lat="59.9753514" lon="17.7381608">
        <ele>28.4962</ele>
        <time>2012-05-07T15:34:45Z</time>
      </trkpt>
      <trkpt lat="59.9754088" lon="17.7382309">
        <ele>29.4575</ele>
        <time>2012-05-07T15:34:50Z</time>
      </trkpt>
      <trkpt lat="59.9755139" lon="17.738416">
        <ele>30.8995</ele>
        <time>2012-05-07T15:34:59Z</time>
      </trkpt>
      <trkpt lat="59.9756005" lon="17.7385576">
        <ele>31.3801</ele>
        <time>2012-05-07T15:35:07Z</time>
      </trkpt>
      <trkpt lat="59.9756704" lon="17.7386857">
        <ele>32.8223</ele>
        <time>2012-05-07T15:35:13Z</time>
      </trkpt>
      <trkpt lat="59.975727" lon="17.738819">
        <ele>30.4188</ele>
        <time>2012-05-07T15:35:20Z</time>
      </trkpt>
      <trkpt lat="59.9758069" lon="17.738957">
        <ele>31.8607</ele>
        <time>2012-05-07T15:35:26Z</time>
      </trkpt>
      <trkpt lat="59.9759053" lon="17.7390957">
        <ele>31.8607</ele>
        <time>2012-05-07T15:35:33Z</time>
      </trkpt>
      <trkpt lat="59.9759925" lon="17.7392383">
        <ele>31.8607</ele>
        <time>2012-05-07T15:35:40Z</time>
      </trkpt>
      <trkpt lat="59.9760787" lon="17.7394113">
        <ele>33.3029</ele>
        <time>2012-05-07T15:35:49Z</time>
      </trkpt>
      <trkpt lat="59.9761531" lon="17.7395837">
        <ele>34.7449</ele>
        <time>2012-05-07T15:35:57Z</time>
      </trkpt>
      <trkpt lat="59.9762109" lon="17.7396703">
        <ele>34.7449</ele>
        <time>2012-05-07T15:36:03Z</time>
      </trkpt>
      <trkpt lat="59.9763189" lon="17.7397563">
        <ele>34.2642</ele>
        <time>2012-05-07T15:36:13Z</time>
      </trkpt>
      <trkpt lat="59.9763891" lon="17.7396966">
        <ele>33.7834</ele>
        <time>2012-05-07T15:36:19Z</time>
      </trkpt>
      <trkpt lat="59.976449" lon="17.7395595">
        <ele>35.7061</ele>
        <time>2012-05-07T15:36:25Z</time>
      </trkpt>
      <trkpt lat="59.97653" lon="17.739408">
        <ele>37.1481</ele>
        <time>2012-05-07T15:36:33Z</time>
      </trkpt>
      <trkpt lat="59.9765346" lon="17.7393904">
        <ele>37.1481</ele>
        <time>2012-05-07T15:36:34Z</time>
      </trkpt>
      <trkpt lat="59.9766118" lon="17.7393147">
        <ele>39.5513</ele>
        <time>2012-05-07T15:36:40Z</time>
      </trkpt>
      <trkpt lat="59.9767147" lon="17.7392538">
        <ele>38.5901</ele>
        <time>2012-05-07T15:36:48Z</time>
      </trkpt>
      <trkpt lat="59.9768023" lon="17.7392505">
        <ele>38.1094</ele>
        <time>2012-05-07T15:36:53Z</time>
      </trkpt>
      <trkpt lat="59.9769125" lon="17.7392388">
        <ele>35.2255</ele>
        <time>2012-05-07T15:37:00Z</time>
      </trkpt>
      <trkpt lat="59.976984" lon="17.7391887">
        <ele>31.3801</ele>
        <time>2012-05-07T15:37:07Z</time>
      </trkpt>
      <trkpt lat="59.9770645" lon="17.7391827">
        <ele>27.5349</ele>
        <time>2012-05-07T15:37:14Z</time>
      </trkpt>
      <trkpt lat="59.9771581" lon="17.7391559">
        <ele>27.5349</ele>
        <time>2012-05-07T15:37:21Z</time>
      </trkpt>
      <trkpt lat="59.9772567" lon="17.7390925">
        <ele>28.4962</ele>
        <time>2012-05-07T15:37:28Z</time>
      </trkpt>
      <trkpt lat="59.9773471" lon="17.7390304">
        <ele>29.4575</ele>
        <time>2012-05-07T15:37:35Z</time>
      </trkpt>
      <trkpt lat="59.9773777" lon="17.7390179">
        <ele>29.9381</ele>
        <time>2012-05-07T15:37:38Z</time>
      </trkpt>
      <trkpt lat="59.9774618" lon="17.7389972">
        <ele>31.8607</ele>
        <time>2012-05-07T15:37:43Z</time>
      </trkpt>
      <trkpt lat="59.9775653" lon="17.7389638">
        <ele>31.8607</ele>
        <time>2012-05-07T15:37:50Z</time>
      </trkpt>
      <trkpt lat="59.97765" lon="17.738959">
        <ele>31.3801</ele>
        <time>2012-05-07T15:37:56Z</time>
      </trkpt>
      <trkpt lat="59.977754" lon="17.7389832">
        <ele>31.8607</ele>
        <time>2012-05-07T15:38:03Z</time>
      </trkpt>
      <trkpt lat="59.9778919" lon="17.7390424">
        <ele>34.2642</ele>
        <time>2012-05-07T15:38:12Z</time>
      </trkpt>
      <trkpt lat="59.9779884" lon="17.7391034">
        <ele>36.6675</ele>
        <time>2012-05-07T15:38:19Z</time>
      </trkpt>
      <trkpt lat="59.9781032" lon="17.7391591">
        <ele>38.5901</ele>
        <time>2012-05-07T15:38:27Z</time>
      </trkpt>
      <trkpt lat="59.9781671" lon="17.7391807">
        <ele>40.0321</ele>
        <time>2012-05-07T15:38:32Z</time>
      </trkpt>
      <trkpt lat="59.9782518" lon="17.7391949">
        <ele>41.474</ele>
        <time>2012-05-07T15:38:37Z</time>
      </trkpt>
      <trkpt lat="59.9783412" lon="17.7392153">
        <ele>40.5128</ele>
        <time>2012-05-07T15:38:43Z</time>
      </trkpt>
      <trkpt lat="59.9784247" lon="17.7392418">
        <ele>38.5901</ele>
        <time>2012-05-07T15:38:50Z</time>
      </trkpt>
      <trkpt lat="59.9785113" lon="17.7392543">
        <ele>35.2255</ele>
        <time>2012-05-07T15:38:57Z</time>
      </trkpt>
      <trkpt lat="59.9785919" lon="17.7392839">
        <ele>33.3029</ele>
        <time>2012-05-07T15:39:03Z</time>
      </trkpt>
      <trkpt lat="59.9786635" lon="17.7393239">
        <ele>32.3416</ele>
        <time>2012-05-07T15:39:09Z</time>
      </trkpt>
      <trkpt lat="59.9787609" lon="17.7393507">
        <ele>32.8223</ele>
        <time>2012-05-07T15:39:16Z</time>
      </trkpt>
      <trkpt lat="59.9788636" lon="17.7393687">
        <ele>33.3029</ele>
        <time>2012-05-07T15:39:22Z</time>
      </trkpt>
      <trkpt lat="59.9789379" lon="17.739445">
        <ele>35.2255</ele>
        <time>2012-05-07T15:39:28Z</time>
      </trkpt>
      <trkpt lat="59.9789982" lon="17.7396018">
        <ele>36.1868</ele>
        <time>2012-05-07T15:39:35Z</time>
      </trkpt>
      <trkpt lat="59.9789866" lon="17.7397359">
        <ele>35.2255</ele>
        <time>2012-05-07T15:39:40Z</time>
      </trkpt>
      <trkpt lat="59.9789645" lon="17.7398582">
        <ele>35.7061</ele>
        <time>2012-05-07T15:39:46Z</time>
      </trkpt>
      <trkpt lat="59.9789605" lon="17.7398786">
        <ele>35.7061</ele>
        <time>2012-05-07T15:39:47Z</time>
      </trkpt>
      <trkpt lat="59.9789081" lon="17.7399369">
        <ele>37.1481</ele>
        <time>2012-05-07T15:39:55Z</time>
      </trkpt>
    </trkseg>
  </trk>
</gpx>